sensor_id;sensor_type;location;lat;lon;timestamp;P1;durP1;ratioP1;P2;durP2;ratioP2
4553;SDS011;2289;48.316;15.174;2023-12-04T00:00:56;6.03;;;4.80;;
4553;SDS011;2289;48.316;15.174;2023-12-04T00:03:25;6.10;;;5.10;;
4553;SDS011;2289;48.316;15.174;2023-12-04T00:05:54;7.77;;;6.80;;
4553;SDS011;2289;48.316;15.174;2023-12-04T00:08:23;7.53;;;5.03;;
4553;SDS011;2289;48.316;15.174;2023-12-04T00:10:54;6.97;;;5.67;;
4553;SDS011;2289;48.316;15.174;2023-12-04T00:19:39;10.20;;;6.40;;
4553;SDS011;2289;48.316;15.174;2023-12-04T00:22:09;8.03;;;6.23;;
4553;SDS011;2289;48.316;15.174;2023-12-04T00:24:38;9.97;;;5.90;;
4553;SDS011;2289;48.316;15.174;2023-12-04T00:27:09;10.40;;;6.27;;
4553;SDS011;2289;48.316;15.174;2023-12-04T00:29:39;14.33;;;7.50;;
4553;SDS011;2289;48.316;15.174;2023-12-04T00:35:14;10.30;;;5.23;;
4553;SDS011;2289;48.316;15.174;2023-12-04T00:43:59;6.77;;;6.03;;
4553;SDS011;2289;48.316;15.174;2023-12-04T00:46:28;9.20;;;5.90;;
4553;SDS011;2289;48.316;15.174;2023-12-04T00:48:57;7.40;;;5.50;;
4553;SDS011;2289;48.316;15.174;2023-12-04T00:51:26;9.53;;;5.27;;
4553;SDS011;2289;48.316;15.174;2023-12-04T00:57:01;4.40;;;4.00;;
4553;SDS011;2289;48.316;15.174;2023-12-04T00:59:32;4.83;;;3.67;;
4553;SDS011;2289;48.316;15.174;2023-12-04T01:02:01;5.97;;;3.20;;
4553;SDS011;2289;48.316;15.174;2023-12-04T01:10:43;4.63;;;2.90;;
4553;SDS011;2289;48.316;15.174;2023-12-04T01:13:12;5.73;;;3.47;;
4553;SDS011;2289;48.316;15.174;2023-12-04T01:15:46;3.87;;;2.30;;
4553;SDS011;2289;48.316;15.174;2023-12-04T01:18:16;3.70;;;2.50;;
4553;SDS011;2289;48.316;15.174;2023-12-04T01:20:45;4.53;;;2.97;;
4553;SDS011;2289;48.316;15.174;2023-12-04T01:23:15;3.47;;;2.80;;
4553;SDS011;2289;48.316;15.174;2023-12-04T01:25:44;2.77;;;2.57;;
4553;SDS011;2289;48.316;15.174;2023-12-04T01:31:21;5.23;;;4.27;;
4553;SDS011;2289;48.316;15.174;2023-12-04T01:33:50;5.50;;;4.43;;
4553;SDS011;2289;48.316;15.174;2023-12-04T01:36:19;3.47;;;2.40;;
4553;SDS011;2289;48.316;15.174;2023-12-04T01:41:57;3.30;;;3.00;;
4553;SDS011;2289;48.316;15.174;2023-12-04T01:44:26;4.27;;;3.47;;
4553;SDS011;2289;48.316;15.174;2023-12-04T01:50:05;2.77;;;2.10;;
4553;SDS011;2289;48.316;15.174;2023-12-04T01:52:35;2.63;;;2.43;;
4553;SDS011;2289;48.316;15.174;2023-12-04T02:01:18;5.60;;;3.77;;
4553;SDS011;2289;48.316;15.174;2023-12-04T02:10:02;4.07;;;3.57;;
4553;SDS011;2289;48.316;15.174;2023-12-04T02:12:31;4.90;;;2.90;;
4553;SDS011;2289;48.316;15.174;2023-12-04T02:21:16;2.10;;;1.90;;
4553;SDS011;2289;48.316;15.174;2023-12-04T02:23:49;2.63;;;2.17;;
4553;SDS011;2289;48.316;15.174;2023-12-04T02:32:35;1.33;;;1.23;;
4553;SDS011;2289;48.316;15.174;2023-12-04T02:35:06;2.43;;;1.80;;
4553;SDS011;2289;48.316;15.174;2023-12-04T02:37:37;2.13;;;1.93;;
4553;SDS011;2289;48.316;15.174;2023-12-04T02:40:11;1.90;;;1.37;;
4553;SDS011;2289;48.316;15.174;2023-12-04T02:42:41;1.83;;;1.50;;
4553;SDS011;2289;48.316;15.174;2023-12-04T02:45:11;2.03;;;1.93;;
4553;SDS011;2289;48.316;15.174;2023-12-04T02:47:40;1.93;;;1.73;;
4553;SDS011;2289;48.316;15.174;2023-12-04T02:50:09;3.03;;;1.90;;
4553;SDS011;2289;48.316;15.174;2023-12-04T02:55:46;2.07;;;1.87;;
4553;SDS011;2289;48.316;15.174;2023-12-04T02:58:16;1.70;;;1.60;;
4553;SDS011;2289;48.316;15.174;2023-12-04T03:00:45;2.50;;;1.80;;
4553;SDS011;2289;48.316;15.174;2023-12-04T03:03:15;1.50;;;1.40;;
4553;SDS011;2289;48.316;15.174;2023-12-04T03:05:44;2.07;;;1.87;;
4553;SDS011;2289;48.316;15.174;2023-12-04T03:14:27;2.73;;;1.53;;
4553;SDS011;2289;48.316;15.174;2023-12-04T03:16:56;2.30;;;2.10;;
4553;SDS011;2289;48.316;15.174;2023-12-04T03:19:26;1.57;;;1.40;;
4553;SDS011;2289;48.316;15.174;2023-12-04T03:28:07;1.77;;;1.27;;
4553;SDS011;2289;48.316;15.174;2023-12-04T03:30:38;1.90;;;1.80;;
4553;SDS011;2289;48.316;15.174;2023-12-04T03:33:08;1.97;;;1.47;;
4553;SDS011;2289;48.316;15.174;2023-12-04T03:35:37;1.93;;;1.83;;
4553;SDS011;2289;48.316;15.174;2023-12-04T03:38:06;1.50;;;1.40;;
4553;SDS011;2289;48.316;15.174;2023-12-04T03:40:35;1.97;;;1.87;;
4553;SDS011;2289;48.316;15.174;2023-12-04T03:43:04;1.60;;;1.50;;
4553;SDS011;2289;48.316;15.174;2023-12-04T03:45:34;3.20;;;1.70;;
4553;SDS011;2289;48.316;15.174;2023-12-04T03:48:06;5.00;;;2.47;;
4553;SDS011;2289;48.316;15.174;2023-12-04T03:50:36;5.63;;;3.07;;
4553;SDS011;2289;48.316;15.174;2023-12-04T03:56:11;3.63;;;2.07;;
4553;SDS011;2289;48.316;15.174;2023-12-04T03:58:41;3.80;;;2.13;;
4553;SDS011;2289;48.316;15.174;2023-12-04T04:10:29;1.77;;;1.67;;
4553;SDS011;2289;48.316;15.174;2023-12-04T04:19:10;4.30;;;2.23;;
4553;SDS011;2289;48.316;15.174;2023-12-04T04:27:53;1.60;;;1.50;;
4553;SDS011;2289;48.316;15.174;2023-12-04T04:30:22;2.40;;;2.17;;
4553;SDS011;2289;48.316;15.174;2023-12-04T04:39:03;2.83;;;2.60;;
4553;SDS011;2289;48.316;15.174;2023-12-04T04:47:46;2.73;;;2.10;;
4553;SDS011;2289;48.316;15.174;2023-12-04T04:50:15;5.40;;;2.20;;
4553;SDS011;2289;48.316;15.174;2023-12-04T05:02:03;3.03;;;1.07;;
4553;SDS011;2289;48.316;15.174;2023-12-04T05:04:34;2.97;;;1.33;;
4553;SDS011;2289;48.316;15.174;2023-12-04T05:07:02;1.83;;;1.73;;
4553;SDS011;2289;48.316;15.174;2023-12-04T05:09:31;3.37;;;1.80;;
4553;SDS011;2289;48.316;15.174;2023-12-04T05:11:59;2.27;;;2.07;;
4553;SDS011;2289;48.316;15.174;2023-12-04T05:14:28;1.50;;;1.20;;
4553;SDS011;2289;48.316;15.174;2023-12-04T05:16:57;2.40;;;1.63;;
4553;SDS011;2289;48.316;15.174;2023-12-04T05:19:26;1.67;;;1.27;;
4553;SDS011;2289;48.316;15.174;2023-12-04T05:21:58;2.43;;;1.20;;
4553;SDS011;2289;48.316;15.174;2023-12-04T05:24:27;1.80;;;1.30;;
4553;SDS011;2289;48.316;15.174;2023-12-04T05:26:56;1.83;;;1.50;;
4553;SDS011;2289;48.316;15.174;2023-12-04T05:29:25;3.23;;;1.77;;
4553;SDS011;2289;48.316;15.174;2023-12-04T05:31:53;1.40;;;1.30;;
4553;SDS011;2289;48.316;15.174;2023-12-04T05:34:24;4.20;;;2.10;;
4553;SDS011;2289;48.316;15.174;2023-12-04T05:36:52;3.63;;;1.73;;
4553;SDS011;2289;48.316;15.174;2023-12-04T05:39:22;2.37;;;1.67;;
4553;SDS011;2289;48.316;15.174;2023-12-04T05:41:50;1.63;;;1.53;;
4553;SDS011;2289;48.316;15.174;2023-12-04T05:44:19;1.40;;;1.23;;
4553;SDS011;2289;48.316;15.174;2023-12-04T05:46:48;2.30;;;1.97;;
4553;SDS011;2289;48.316;15.174;2023-12-04T05:49:18;1.50;;;1.40;;
4553;SDS011;2289;48.316;15.174;2023-12-04T05:51:47;1.67;;;1.50;;
4553;SDS011;2289;48.316;15.174;2023-12-04T05:54:16;3.27;;;2.27;;
4553;SDS011;2289;48.316;15.174;2023-12-04T05:56:46;11.97;;;5.33;;
4553;SDS011;2289;48.316;15.174;2023-12-04T05:59:14;6.80;;;5.07;;
4553;SDS011;2289;48.316;15.174;2023-12-04T06:01:43;8.80;;;5.13;;
4553;SDS011;2289;48.316;15.174;2023-12-04T06:04:12;7.83;;;5.07;;
4553;SDS011;2289;48.316;15.174;2023-12-04T06:06:41;3.60;;;2.10;;
4553;SDS011;2289;48.316;15.174;2023-12-04T06:09:11;4.97;;;3.03;;
4553;SDS011;2289;48.316;15.174;2023-12-04T06:11:42;1.50;;;1.27;;
4553;SDS011;2289;48.316;15.174;2023-12-04T06:14:15;2.20;;;1.33;;
4553;SDS011;2289;48.316;15.174;2023-12-04T06:16:43;1.60;;;1.50;;
4553;SDS011;2289;48.316;15.174;2023-12-04T06:19:13;1.23;;;1.10;;
4553;SDS011;2289;48.316;15.174;2023-12-04T06:21:41;2.63;;;1.73;;
4553;SDS011;2289;48.316;15.174;2023-12-04T06:24:11;1.70;;;1.57;;
4553;SDS011;2289;48.316;15.174;2023-12-04T06:26:40;4.13;;;2.43;;
4553;SDS011;2289;48.316;15.174;2023-12-04T06:29:09;5.00;;;2.80;;
4553;SDS011;2289;48.316;15.174;2023-12-04T06:31:41;2.53;;;2.33;;
4553;SDS011;2289;48.316;15.174;2023-12-04T06:34:10;2.20;;;1.47;;
4553;SDS011;2289;48.316;15.174;2023-12-04T06:36:39;1.43;;;1.33;;
4553;SDS011;2289;48.316;15.174;2023-12-04T06:39:09;2.73;;;2.00;;
4553;SDS011;2289;48.316;15.174;2023-12-04T06:41:39;5.40;;;3.13;;
4553;SDS011;2289;48.316;15.174;2023-12-04T06:44:14;3.50;;;2.30;;
4553;SDS011;2289;48.316;15.174;2023-12-04T06:46:45;7.20;;;1.97;;
4553;SDS011;2289;48.316;15.174;2023-12-04T06:49:17;4.47;;;4.10;;
4553;SDS011;2289;48.316;15.174;2023-12-04T06:51:46;7.13;;;5.00;;
4553;SDS011;2289;48.316;15.174;2023-12-04T06:54:15;4.30;;;3.53;;
4553;SDS011;2289;48.316;15.174;2023-12-04T06:56:44;2.90;;;2.67;;
4553;SDS011;2289;48.316;15.174;2023-12-04T06:59:15;2.60;;;2.40;;
4553;SDS011;2289;48.316;15.174;2023-12-04T07:01:45;4.37;;;3.20;;
4553;SDS011;2289;48.316;15.174;2023-12-04T07:04:15;7.10;;;4.80;;
4553;SDS011;2289;48.316;15.174;2023-12-04T07:06:48;8.17;;;6.70;;
4553;SDS011;2289;48.316;15.174;2023-12-04T07:09:17;16.60;;;10.80;;
4553;SDS011;2289;48.316;15.174;2023-12-04T07:11:50;13.33;;;8.53;;
4553;SDS011;2289;48.316;15.174;2023-12-04T07:14:18;6.03;;;5.50;;
4553;SDS011;2289;48.316;15.174;2023-12-04T07:16:48;5.87;;;5.27;;
4553;SDS011;2289;48.316;15.174;2023-12-04T07:19:17;3.67;;;3.37;;
4553;SDS011;2289;48.316;15.174;2023-12-04T07:21:47;4.07;;;2.83;;
4553;SDS011;2289;48.316;15.174;2023-12-04T07:29:29;4.57;;;3.33;;
4553;SDS011;2289;48.316;15.174;2023-12-04T07:31:59;9.97;;;4.73;;
4553;SDS011;2289;48.316;15.174;2023-12-04T07:34:29;3.57;;;3.27;;
4553;SDS011;2289;48.316;15.174;2023-12-04T07:37:00;2.67;;;2.43;;
4553;SDS011;2289;48.316;15.174;2023-12-04T07:39:29;3.10;;;2.43;;
4553;SDS011;2289;48.316;15.174;2023-12-04T07:41:58;8.43;;;5.40;;
4553;SDS011;2289;48.316;15.174;2023-12-04T07:44:39;14.60;;;9.27;;
4553;SDS011;2289;48.316;15.174;2023-12-04T07:47:09;17.77;;;10.07;;
4553;SDS011;2289;48.316;15.174;2023-12-04T07:49:38;14.87;;;11.17;;
4553;SDS011;2289;48.316;15.174;2023-12-04T07:52:07;11.83;;;10.27;;
4553;SDS011;2289;48.316;15.174;2023-12-04T07:54:39;10.10;;;9.10;;
4553;SDS011;2289;48.316;15.174;2023-12-04T07:57:08;14.53;;;10.23;;
4553;SDS011;2289;48.316;15.174;2023-12-04T07:59:37;10.40;;;8.83;;
4553;SDS011;2289;48.316;15.174;2023-12-04T08:02:06;12.80;;;9.23;;
4553;SDS011;2289;48.316;15.174;2023-12-04T08:04:37;12.50;;;10.63;;
4553;SDS011;2289;48.316;15.174;2023-12-04T08:07:06;13.80;;;11.23;;
4553;SDS011;2289;48.316;15.174;2023-12-04T08:09:36;15.23;;;12.60;;
4553;SDS011;2289;48.316;15.174;2023-12-04T08:12:05;14.17;;;11.63;;
4553;SDS011;2289;48.316;15.174;2023-12-04T08:14:34;16.33;;;11.60;;
4553;SDS011;2289;48.316;15.174;2023-12-04T08:17:03;13.53;;;11.50;;
4553;SDS011;2289;48.316;15.174;2023-12-04T08:19:32;16.40;;;12.67;;
4553;SDS011;2289;48.316;15.174;2023-12-04T08:22:02;17.40;;;13.07;;
4553;SDS011;2289;48.316;15.174;2023-12-04T08:24:31;14.90;;;12.70;;
4553;SDS011;2289;48.316;15.174;2023-12-04T08:27:00;15.37;;;12.60;;
4553;SDS011;2289;48.316;15.174;2023-12-04T08:29:28;16.67;;;12.90;;
4553;SDS011;2289;48.316;15.174;2023-12-04T08:31:57;17.20;;;12.30;;
4553;SDS011;2289;48.316;15.174;2023-12-04T08:34:29;12.60;;;10.27;;
4553;SDS011;2289;48.316;15.174;2023-12-04T08:36:59;15.27;;;10.63;;
4553;SDS011;2289;48.316;15.174;2023-12-04T08:39:29;13.50;;;9.23;;
4553;SDS011;2289;48.316;15.174;2023-12-04T08:41:59;10.00;;;7.80;;
4553;SDS011;2289;48.316;15.174;2023-12-04T08:44:33;12.53;;;9.07;;
4553;SDS011;2289;48.316;15.174;2023-12-04T08:47:02;9.33;;;8.43;;
4553;SDS011;2289;48.316;15.174;2023-12-04T08:49:32;10.50;;;9.40;;
4553;SDS011;2289;48.316;15.174;2023-12-04T08:52:11;10.67;;;8.47;;
4553;SDS011;2289;48.316;15.174;2023-12-04T08:54:41;13.03;;;9.40;;
4553;SDS011;2289;48.316;15.174;2023-12-04T08:57:10;15.20;;;11.40;;
4553;SDS011;2289;48.316;15.174;2023-12-04T08:59:39;12.70;;;10.00;;
4553;SDS011;2289;48.316;15.174;2023-12-04T09:02:07;13.80;;;10.57;;
4553;SDS011;2289;48.316;15.174;2023-12-04T09:04:40;11.70;;;10.50;;
4553;SDS011;2289;48.316;15.174;2023-12-04T09:07:10;9.40;;;7.87;;
4553;SDS011;2289;48.316;15.174;2023-12-04T09:10:01;8.33;;;6.90;;
4553;SDS011;2289;48.316;15.174;2023-12-04T09:12:39;9.17;;;8.03;;
4553;SDS011;2289;48.316;15.174;2023-12-04T09:15:08;9.27;;;7.13;;
4553;SDS011;2289;48.316;15.174;2023-12-04T09:17:38;7.87;;;6.17;;
4553;SDS011;2289;48.316;15.174;2023-12-04T09:20:08;6.47;;;5.83;;
4553;SDS011;2289;48.316;15.174;2023-12-04T09:22:38;12.33;;;8.20;;
4553;SDS011;2289;48.316;15.174;2023-12-04T09:25:22;10.43;;;8.50;;
4553;SDS011;2289;48.316;15.174;2023-12-04T09:27:53;9.40;;;7.80;;
4553;SDS011;2289;48.316;15.174;2023-12-04T09:30:28;10.33;;;8.13;;
4553;SDS011;2289;48.316;15.174;2023-12-04T09:32:58;19.63;;;12.20;;
4553;SDS011;2289;48.316;15.174;2023-12-04T09:35:27;22.23;;;13.50;;
4553;SDS011;2289;48.316;15.174;2023-12-04T09:37:56;15.70;;;11.37;;
4553;SDS011;2289;48.316;15.174;2023-12-04T09:40:27;31.33;;;14.33;;
4553;SDS011;2289;48.316;15.174;2023-12-04T09:42:55;25.90;;;13.80;;
4553;SDS011;2289;48.316;15.174;2023-12-04T09:45:25;18.53;;;12.70;;
4553;SDS011;2289;48.316;15.174;2023-12-04T09:47:54;12.83;;;10.50;;
4553;SDS011;2289;48.316;15.174;2023-12-04T09:50:25;12.70;;;9.90;;
4553;SDS011;2289;48.316;15.174;2023-12-04T09:52:54;13.67;;;9.63;;
4553;SDS011;2289;48.316;15.174;2023-12-04T09:55:24;27.93;;;13.73;;
4553;SDS011;2289;48.316;15.174;2023-12-04T09:57:54;52.63;;;29.53;;
4553;SDS011;2289;48.316;15.174;2023-12-04T10:00:24;67.43;;;34.57;;
4553;SDS011;2289;48.316;15.174;2023-12-04T10:02:58;79.20;;;38.53;;
4553;SDS011;2289;48.316;15.174;2023-12-04T10:05:27;51.00;;;24.97;;
4553;SDS011;2289;48.316;15.174;2023-12-04T10:07:57;36.90;;;20.07;;
4553;SDS011;2289;48.316;15.174;2023-12-04T10:10:26;28.40;;;17.17;;
4553;SDS011;2289;48.316;15.174;2023-12-04T10:12:57;28.67;;;16.60;;
4553;SDS011;2289;48.316;15.174;2023-12-04T10:15:26;28.37;;;16.90;;
4553;SDS011;2289;48.316;15.174;2023-12-04T10:17:55;15.37;;;12.20;;
4553;SDS011;2289;48.316;15.174;2023-12-04T10:20:25;14.90;;;10.60;;
4553;SDS011;2289;48.316;15.174;2023-12-04T10:23:02;11.57;;;8.90;;
4553;SDS011;2289;48.316;15.174;2023-12-04T10:25:31;7.27;;;6.40;;
4553;SDS011;2289;48.316;15.174;2023-12-04T10:28:10;6.13;;;5.20;;
4553;SDS011;2289;48.316;15.174;2023-12-04T10:30:41;6.40;;;5.10;;
4553;SDS011;2289;48.316;15.174;2023-12-04T10:33:11;7.20;;;5.50;;
4553;SDS011;2289;48.316;15.174;2023-12-04T10:35:41;9.07;;;6.30;;
4553;SDS011;2289;48.316;15.174;2023-12-04T10:38:11;8.10;;;5.50;;
4553;SDS011;2289;48.316;15.174;2023-12-04T10:40:41;12.07;;;6.70;;
4553;SDS011;2289;48.316;15.174;2023-12-04T10:43:12;9.33;;;6.27;;
4553;SDS011;2289;48.316;15.174;2023-12-04T10:45:43;8.00;;;6.10;;
4553;SDS011;2289;48.316;15.174;2023-12-04T10:48:13;8.40;;;6.20;;
4553;SDS011;2289;48.316;15.174;2023-12-04T10:50:44;12.30;;;6.83;;
4553;SDS011;2289;48.316;15.174;2023-12-04T10:53:16;8.47;;;6.80;;
4553;SDS011;2289;48.316;15.174;2023-12-04T10:55:46;11.33;;;8.27;;
4553;SDS011;2289;48.316;15.174;2023-12-04T10:58:19;12.37;;;9.20;;
4553;SDS011;2289;48.316;15.174;2023-12-04T11:00:49;14.47;;;7.70;;
4553;SDS011;2289;48.316;15.174;2023-12-04T11:03:20;12.43;;;8.80;;
4553;SDS011;2289;48.316;15.174;2023-12-04T11:05:56;11.43;;;7.77;;
4553;SDS011;2289;48.316;15.174;2023-12-04T11:08:28;7.53;;;6.40;;
4553;SDS011;2289;48.316;15.174;2023-12-04T11:10:59;8.60;;;6.43;;
4553;SDS011;2289;48.316;15.174;2023-12-04T11:13:32;9.63;;;6.80;;
4553;SDS011;2289;48.316;15.174;2023-12-04T11:16:05;6.23;;;5.23;;
4553;SDS011;2289;48.316;15.174;2023-12-04T11:18:38;9.63;;;5.90;;
4553;SDS011;2289;48.316;15.174;2023-12-04T11:21:12;7.50;;;4.93;;
4553;SDS011;2289;48.316;15.174;2023-12-04T11:23:40;10.93;;;7.57;;
4553;SDS011;2289;48.316;15.174;2023-12-04T11:26:10;7.10;;;6.00;;
4553;SDS011;2289;48.316;15.174;2023-12-04T11:28:41;5.73;;;4.87;;
4553;SDS011;2289;48.316;15.174;2023-12-04T11:31:10;7.40;;;5.50;;
4553;SDS011;2289;48.316;15.174;2023-12-04T11:33:39;7.03;;;5.10;;
4553;SDS011;2289;48.316;15.174;2023-12-04T11:36:09;6.00;;;5.20;;
4553;SDS011;2289;48.316;15.174;2023-12-04T11:38:43;8.37;;;5.37;;
4553;SDS011;2289;48.316;15.174;2023-12-04T11:41:17;5.87;;;5.30;;
4553;SDS011;2289;48.316;15.174;2023-12-04T11:43:54;5.97;;;5.37;;
4553;SDS011;2289;48.316;15.174;2023-12-04T11:46:25;7.87;;;5.40;;
4553;SDS011;2289;48.316;15.174;2023-12-04T11:48:57;8.33;;;6.07;;
4553;SDS011;2289;48.316;15.174;2023-12-04T11:52:03;7.53;;;5.73;;
4553;SDS011;2289;48.316;15.174;2023-12-04T11:57:27;8.60;;;6.47;;
4553;SDS011;2289;48.316;15.174;2023-12-04T12:00:19;9.20;;;6.20;;
4553;SDS011;2289;48.316;15.174;2023-12-04T12:03:03;5.77;;;5.17;;
4553;SDS011;2289;48.316;15.174;2023-12-04T12:05:49;8.50;;;5.73;;
4553;SDS011;2289;48.316;15.174;2023-12-04T12:08:20;8.70;;;5.90;;
4553;SDS011;2289;48.316;15.174;2023-12-04T12:10:51;8.37;;;6.33;;
4553;SDS011;2289;48.316;15.174;2023-12-04T12:13:21;7.70;;;5.37;;
4553;SDS011;2289;48.316;15.174;2023-12-04T12:15:54;5.87;;;5.23;;
4553;SDS011;2289;48.316;15.174;2023-12-04T12:18:25;7.70;;;5.73;;
4553;SDS011;2289;48.316;15.174;2023-12-04T12:20:55;7.70;;;6.10;;
4553;SDS011;2289;48.316;15.174;2023-12-04T12:23:24;6.57;;;5.73;;
4553;SDS011;2289;48.316;15.174;2023-12-04T12:25:54;9.30;;;7.03;;
4553;SDS011;2289;48.316;15.174;2023-12-04T12:28:23;8.97;;;6.47;;
4553;SDS011;2289;48.316;15.174;2023-12-04T12:30:53;10.37;;;7.10;;
4553;SDS011;2289;48.316;15.174;2023-12-04T12:33:23;12.47;;;7.77;;
4553;SDS011;2289;48.316;15.174;2023-12-04T12:35:52;10.70;;;6.67;;
4553;SDS011;2289;48.316;15.174;2023-12-04T12:38:29;7.50;;;6.20;;
4553;SDS011;2289;48.316;15.174;2023-12-04T12:41:01;9.00;;;6.20;;
4553;SDS011;2289;48.316;15.174;2023-12-04T12:43:35;9.53;;;6.13;;
4553;SDS011;2289;48.316;15.174;2023-12-04T12:46:07;10.93;;;7.00;;
4553;SDS011;2289;48.316;15.174;2023-12-04T12:48:37;8.40;;;6.87;;
4553;SDS011;2289;48.316;15.174;2023-12-04T12:51:06;8.43;;;6.80;;
4553;SDS011;2289;48.316;15.174;2023-12-04T12:53:38;8.33;;;7.10;;
4553;SDS011;2289;48.316;15.174;2023-12-04T12:56:10;10.90;;;6.80;;
4553;SDS011;2289;48.316;15.174;2023-12-04T12:58:39;6.93;;;6.07;;
4553;SDS011;2289;48.316;15.174;2023-12-04T13:01:11;8.37;;;6.60;;
4553;SDS011;2289;48.316;15.174;2023-12-04T13:03:44;9.87;;;7.57;;
4553;SDS011;2289;48.316;15.174;2023-12-04T13:06:15;9.70;;;7.23;;
4553;SDS011;2289;48.316;15.174;2023-12-04T13:08:47;7.97;;;7.13;;
4553;SDS011;2289;48.316;15.174;2023-12-04T13:11:16;8.90;;;6.87;;
4553;SDS011;2289;48.316;15.174;2023-12-04T13:13:45;9.60;;;7.13;;
4553;SDS011;2289;48.316;15.174;2023-12-04T13:16:16;8.90;;;7.40;;
4553;SDS011;2289;48.316;15.174;2023-12-04T13:18:47;7.87;;;6.37;;
4553;SDS011;2289;48.316;15.174;2023-12-04T13:21:16;14.63;;;8.13;;
4553;SDS011;2289;48.316;15.174;2023-12-04T13:23:45;13.77;;;9.33;;
4553;SDS011;2289;48.316;15.174;2023-12-04T13:26:14;12.50;;;8.33;;
4553;SDS011;2289;48.316;15.174;2023-12-04T13:28:43;15.97;;;11.30;;
4553;SDS011;2289;48.316;15.174;2023-12-04T13:31:12;16.93;;;11.80;;
4553;SDS011;2289;48.316;15.174;2023-12-04T13:33:42;14.90;;;11.00;;
4553;SDS011;2289;48.316;15.174;2023-12-04T13:36:13;17.40;;;10.40;;
4553;SDS011;2289;48.316;15.174;2023-12-04T13:38:42;12.27;;;8.80;;
4553;SDS011;2289;48.316;15.174;2023-12-04T13:41:11;10.80;;;8.03;;
4553;SDS011;2289;48.316;15.174;2023-12-04T13:44:07;10.87;;;8.30;;
4553;SDS011;2289;48.316;15.174;2023-12-04T13:46:35;11.00;;;8.67;;
4553;SDS011;2289;48.316;15.174;2023-12-04T13:49:05;13.07;;;8.40;;
4553;SDS011;2289;48.316;15.174;2023-12-04T13:51:35;10.23;;;8.03;;
4553;SDS011;2289;48.316;15.174;2023-12-04T13:54:07;12.07;;;8.03;;
4553;SDS011;2289;48.316;15.174;2023-12-04T13:56:47;17.50;;;10.37;;
4553;SDS011;2289;48.316;15.174;2023-12-04T13:59:24;14.33;;;9.50;;
4553;SDS011;2289;48.316;15.174;2023-12-04T14:01:54;14.97;;;9.50;;
4553;SDS011;2289;48.316;15.174;2023-12-04T14:04:29;15.73;;;8.97;;
4553;SDS011;2289;48.316;15.174;2023-12-04T14:06:58;16.53;;;10.20;;
4553;SDS011;2289;48.316;15.174;2023-12-04T14:09:31;17.00;;;10.30;;
4553;SDS011;2289;48.316;15.174;2023-12-04T14:12:03;15.60;;;11.77;;
4553;SDS011;2289;48.316;15.174;2023-12-04T14:14:32;14.20;;;9.90;;
4553;SDS011;2289;48.316;15.174;2023-12-04T14:17:02;16.80;;;10.60;;
4553;SDS011;2289;48.316;15.174;2023-12-04T14:19:32;15.27;;;9.97;;
4553;SDS011;2289;48.316;15.174;2023-12-04T14:22:01;13.63;;;9.10;;
4553;SDS011;2289;48.316;15.174;2023-12-04T14:24:31;16.60;;;11.47;;
4553;SDS011;2289;48.316;15.174;2023-12-04T14:27:00;14.30;;;10.67;;
4553;SDS011;2289;48.316;15.174;2023-12-04T14:29:30;19.33;;;12.80;;
4553;SDS011;2289;48.316;15.174;2023-12-04T14:31:58;20.23;;;12.63;;
4553;SDS011;2289;48.316;15.174;2023-12-04T14:34:27;13.33;;;9.70;;
4553;SDS011;2289;48.316;15.174;2023-12-04T14:36:58;12.93;;;9.80;;
4553;SDS011;2289;48.316;15.174;2023-12-04T14:39:26;14.23;;;9.30;;
4553;SDS011;2289;48.316;15.174;2023-12-04T14:41:55;15.27;;;10.70;;
4553;SDS011;2289;48.316;15.174;2023-12-04T14:44:24;17.73;;;10.53;;
4553;SDS011;2289;48.316;15.174;2023-12-04T14:46:54;14.77;;;9.87;;
4553;SDS011;2289;48.316;15.174;2023-12-04T14:49:22;14.83;;;9.53;;
4553;SDS011;2289;48.316;15.174;2023-12-04T14:51:51;15.23;;;9.13;;
4553;SDS011;2289;48.316;15.174;2023-12-04T14:54:22;17.87;;;11.53;;
4553;SDS011;2289;48.316;15.174;2023-12-04T14:57:04;11.37;;;9.53;;
4553;SDS011;2289;48.316;15.174;2023-12-04T14:59:51;16.40;;;9.37;;
4553;SDS011;2289;48.316;15.174;2023-12-04T15:02:43;16.27;;;8.83;;
4553;SDS011;2289;48.316;15.174;2023-12-04T15:05:47;17.43;;;9.87;;
4553;SDS011;2289;48.316;15.174;2023-12-04T15:08:33;14.87;;;9.50;;
4553;SDS011;2289;48.316;15.174;2023-12-04T15:11:17;14.70;;;9.97;;
4553;SDS011;2289;48.316;15.174;2023-12-04T15:14:09;16.97;;;9.10;;
4553;SDS011;2289;48.316;15.174;2023-12-04T15:16:48;16.43;;;9.90;;
4553;SDS011;2289;48.316;15.174;2023-12-04T15:19:19;18.10;;;11.23;;
4553;SDS011;2289;48.316;15.174;2023-12-04T15:22:03;22.27;;;10.97;;
4553;SDS011;2289;48.316;15.174;2023-12-04T15:24:33;22.10;;;11.00;;
4553;SDS011;2289;48.316;15.174;2023-12-04T16:03:02;16.70;;;9.70;;
4553;SDS011;2289;48.316;15.174;2023-12-04T16:05:34;15.70;;;10.57;;
4553;SDS011;2289;48.316;15.174;2023-12-04T16:11:10;12.43;;;9.30;;
4553;SDS011;2289;48.316;15.174;2023-12-04T16:31:06;18.03;;;12.00;;
4553;SDS011;2289;48.316;15.174;2023-12-04T16:37:20;29.90;;;16.57;;
4553;SDS011;2289;48.316;15.174;2023-12-04T16:40:08;37.03;;;19.50;;
4553;SDS011;2289;48.316;15.174;2023-12-04T16:42:56;36.60;;;21.90;;
4553;SDS011;2289;48.316;15.174;2023-12-04T16:45:50;30.47;;;16.30;;
4553;SDS011;2289;48.316;15.174;2023-12-04T16:48:42;25.83;;;13.80;;
4553;SDS011;2289;48.316;15.174;2023-12-04T16:51:29;19.83;;;11.90;;
4553;SDS011;2289;48.316;15.174;2023-12-04T16:54:17;22.10;;;11.10;;
4553;SDS011;2289;48.316;15.174;2023-12-04T16:57:05;32.33;;;16.50;;
4553;SDS011;2289;48.316;15.174;2023-12-04T17:06:48;33.90;;;18.50;;
4553;SDS011;2289;48.316;15.174;2023-12-04T17:09:35;27.50;;;15.07;;
4553;SDS011;2289;48.316;15.174;2023-12-04T17:12:24;30.30;;;15.63;;
4553;SDS011;2289;48.316;15.174;2023-12-04T17:15:12;27.60;;;15.23;;
4553;SDS011;2289;48.316;15.174;2023-12-04T17:21:28;21.27;;;12.13;;
4553;SDS011;2289;48.316;15.174;2023-12-04T17:27:42;12.80;;;9.90;;
4553;SDS011;2289;48.316;15.174;2023-12-04T17:30:29;15.03;;;9.70;;
4553;SDS011;2289;48.316;15.174;2023-12-04T17:33:18;13.07;;;8.70;;
4553;SDS011;2289;48.316;15.174;2023-12-04T17:42:57;20.30;;;11.60;;
4553;SDS011;2289;48.316;15.174;2023-12-04T17:45:45;21.53;;;12.07;;
4553;SDS011;2289;48.316;15.174;2023-12-04T17:48:33;18.80;;;12.40;;
4553;SDS011;2289;48.316;15.174;2023-12-04T18:11:55;15.10;;;12.10;;
4553;SDS011;2289;48.316;15.174;2023-12-04T18:14:43;17.70;;;11.43;;
4553;SDS011;2289;48.316;15.174;2023-12-04T18:17:30;25.07;;;11.77;;
4553;SDS011;2289;48.316;15.174;2023-12-04T18:23:44;22.10;;;12.67;;
4553;SDS011;2289;48.316;15.174;2023-12-04T18:26:32;14.30;;;10.63;;
4553;SDS011;2289;48.316;15.174;2023-12-04T18:29:23;18.47;;;12.40;;
4553;SDS011;2289;48.316;15.174;2023-12-04T18:35:36;21.10;;;14.17;;
4553;SDS011;2289;48.316;15.174;2023-12-04T18:38:26;18.33;;;11.57;;
4553;SDS011;2289;48.316;15.174;2023-12-04T18:41:20;20.47;;;13.10;;
4553;SDS011;2289;48.316;15.174;2023-12-04T18:44:08;27.73;;;15.10;;
4553;SDS011;2289;48.316;15.174;2023-12-04T18:50:23;19.87;;;14.33;;
4553;SDS011;2289;48.316;15.174;2023-12-04T18:53:11;27.70;;;15.30;;
4553;SDS011;2289;48.316;15.174;2023-12-04T18:56:03;24.70;;;14.87;;
4553;SDS011;2289;48.316;15.174;2023-12-04T19:15:59;22.10;;;14.40;;
4553;SDS011;2289;48.316;15.174;2023-12-04T19:18:46;19.80;;;13.80;;
4553;SDS011;2289;48.316;15.174;2023-12-04T19:21:35;21.03;;;12.80;;
4553;SDS011;2289;48.316;15.174;2023-12-04T19:31:16;21.27;;;12.20;;
4553;SDS011;2289;48.316;15.174;2023-12-04T19:34:04;24.03;;;12.80;;
4553;SDS011;2289;48.316;15.174;2023-12-04T19:36:52;22.60;;;12.83;;
4553;SDS011;2289;48.316;15.174;2023-12-04T19:39:40;17.60;;;11.40;;
4553;SDS011;2289;48.316;15.174;2023-12-04T19:42:29;20.80;;;12.23;;
4553;SDS011;2289;48.316;15.174;2023-12-04T19:48:44;29.13;;;14.93;;
4553;SDS011;2289;48.316;15.174;2023-12-04T19:51:32;28.43;;;14.40;;
4553;SDS011;2289;48.316;15.174;2023-12-04T20:04:38;27.23;;;14.97;;